Terminal Aerodrome Forecast
Issued by NWS

Home | Current Version | Previous Version | Text Only | Print | Product List | Glossary On
Versions: 1 2 3 4 5 6 7 8 9 10 11 12 13 14 15 16
000
FTUS43 KDTX 211120
TAFMBS
TAF
KMBS 211120Z 2112/2212 20004KT P6SM OVC030
     FM212300 15007KT P6SM OVC050
     FM220800 14005KT P6SM SCT050=

USA.gov is the U.S. government's official web portal to all federal, state and local government web resources and services.